Time;durP1;ratioP1;P1;durP2;ratioP2;P2;SDS_P1;SDS_P2;PMS_P1;PMS_P2;Temp;Humidity;BMP_temperature;BMP_pressure;BME280_temperature;BME280_humidity;BME280_pressure;Samples;Min_cycle;Max_cycle;Signal;HPM_P1;HPM_P2
2021/09/19 18:16:33;;;;;;;6.32;1.80;;;;;;;;;;4915914;29;20056;-82
2021/09/19 18:18:59;;;;;;;4.38;2.20;;;;;;;;;;4918374;29;20051;-79
2021/09/19 18:21:31;;;;;;;3.70;1.80;;;;;;;;;;4917689;29;20080;-76
2021/09/19 18:24:01;;;;;;;5.57;2.08;;;;;;;;;;4917629;29;20430;-78
2021/09/19 18:26:28;;;;;;;4.05;2.45;;;;;;;;;;4918150;29;20517;-78
2021/09/19 18:28:56;;;;;;;3.72;2.13;;;;;;;;;;4917623;29;20451;-79
2021/09/19 18:31:24;;;;;;;5.70;2.53;;;;;;;;;;4917663;29;20028;-80
2021/09/19 18:33:52;;;;;;;4.07;2.05;;;;;;;;;;4917731;29;20055;-77
2021/09/19 18:36:19;;;;;;;3.67;1.90;;;;;;;;;;4917586;29;20495;-78
2021/09/19 18:38:46;;;;;;;3.72;2.15;;;;;;;;;;4900303;29;20032;-77
2021/09/19 18:41:13;;;;;;;5.47;2.30;;;;;;;;;;4900273;29;20080;-78
2021/09/19 18:43:41;;;;;;;4.18;2.33;;;;;;;;;;4916938;29;20107;-78
2021/09/19 18:46:07;;;;;;;5.18;2.17;;;;;;;;;;4917306;29;20024;-77
2021/09/19 18:48:34;;;;;;;4.95;2.90;;;;;;;;;;4900487;29;20552;-77
2021/09/19 18:51:02;;;;;;;5.57;3.00;;;;;;;;;;4917333;29;20039;-78
2021/09/19 18:53:28;;;;;;;6.05;2.90;;;;;;;;;;4917301;29;20111;-78
2021/09/19 18:55:55;;;;;;;4.93;3.00;;;;;;;;;;4900261;29;20029;-79
2021/09/19 18:58:22;;;;;;;4.50;2.40;;;;;;;;;;4917414;29;20063;-79
2021/09/19 19:00:48;;;;;;;5.88;2.42;;;;;;;;;;4917797;29;20024;-76
2021/09/19 19:03:14;;;;;;;6.43;2.72;;;;;;;;;;4917047;29;20048;-76
2021/09/19 19:05:40;;;;;;;4.35;2.15;;;;;;;;;;4917116;29;20103;-78
2021/09/19 19:08:06;;;;;;;4.10;2.13;;;;;;;;;;4917147;29;20473;-78
2021/09/19 19:10:34;;;;;;;4.10;2.08;;;;;;;;;;4900133;29;20553;-78
2021/09/19 19:13:01;;;;;;;5.25;2.35;;;;;;;;;;4917107;29;20077;-78
2021/09/19 19:15:28;;;;;;;5.10;2.30;;;;;;;;;;4899967;29;20060;-79
2021/09/19 19:17:55;;;;;;;5.55;2.50;;;;;;;;;;4917169;29;20103;-79
2021/09/19 19:20:22;;;;;;;5.15;2.78;;;;;;;;;;4917092;29;20047;-78
2021/09/19 19:22:48;;;;;;;4.82;2.58;;;;;;;;;;4900112;29;20036;-78
2021/09/19 19:25:14;;;;;;;6.70;3.25;;;;;;;;;;4917000;29;20051;-78
2021/09/19 19:27:41;;;;;;;5.95;3.35;;;;;;;;;;4900121;29;20103;-77
2021/09/19 19:30:07;;;;;;;5.55;2.95;;;;;;;;;;4900114;29;20036;-78
2021/09/19 19:32:33;;;;;;;6.15;3.60;;;;;;;;;;4917425;29;20052;-78
2021/09/19 19:34:59;;;;;;;6.78;3.30;;;;;;;;;;4900037;29;20035;-77
2021/09/19 19:37:26;;;;;;;5.95;2.97;;;;;;;;;;4900007;29;20119;-77
2021/09/19 19:39:52;;;;;;;5.80;3.15;;;;;;;;;;4899950;29;20115;-78
2021/09/19 19:42:18;;;;;;;5.07;2.88;;;;;;;;;;4916898;29;20024;-78
2021/09/19 19:44:44;;;;;;;6.40;3.50;;;;;;;;;;4916804;29;20048;-77
2021/09/19 19:47:10;;;;;;;5.78;3.45;;;;;;;;;;4917216;29;20465;-78
2021/09/19 19:49:36;;;;;;;8.60;3.30;;;;;;;;;;4916880;29;20036;-79
2021/09/19 19:52:03;;;;;;;7.43;3.53;;;;;;;;;;4916856;29;20079;-79
2021/09/19 19:54:30;;;;;;;4.85;2.83;;;;;;;;;;4899912;29;20044;-78
2021/09/19 19:56:56;;;;;;;5.20;2.90;;;;;;;;;;4920910;29;20159;-80
2021/09/19 19:59:22;;;;;;;5.63;3.30;;;;;;;;;;4920445;29;20493;-81
2021/09/19 20:01:49;;;;;;;5.47;3.33;;;;;;;;;;4920298;29;20032;-79
2021/09/19 20:04:16;;;;;;;6.55;3.67;;;;;;;;;;4920668;29;20067;-79
2021/09/19 20:06:42;;;;;;;5.40;3.13;;;;;;;;;;4920371;29;20480;-80
2021/09/19 20:09:10;;;;;;;9.13;4.07;;;;;;;;;;4920134;29;20107;-80
2021/09/19 20:11:39;;;;;;;7.47;4.03;;;;;;;;;;4920131;29;20016;-81
2021/09/19 20:14:05;;;;;;;7.88;3.75;;;;;;;;;;4919962;29;20060;-76
2021/09/19 20:16:32;;;;;;;7.90;3.88;;;;;;;;;;4902986;29;20048;-76
2021/09/19 20:18:59;;;;;;;7.80;3.63;;;;;;;;;;4903029;29;20035;-78
2021/09/19 20:21:26;;;;;;;6.55;3.63;;;;;;;;;;4920450;29;20028;-77
2021/09/19 20:23:52;;;;;;;8.25;3.40;;;;;;;;;;4903031;29;20036;-76
2021/09/19 20:26:20;;;;;;;5.40;3.65;;;;;;;;;;4919953;29;20024;-80
2021/09/19 20:28:46;;;;;;;7.07;3.90;;;;;;;;;;4902903;29;20056;-79
2021/09/19 20:31:12;;;;;;;7.10;3.97;;;;;;;;;;4920869;29;20449;-80
2021/09/19 20:33:39;;;;;;;7.35;4.00;;;;;;;;;;4919882;29;20391;-78
2021/09/19 20:36:05;;;;;;;8.15;4.55;;;;;;;;;;4920398;29;20032;-78
2021/09/19 20:38:32;;;;;;;7.15;4.22;;;;;;;;;;4919909;29;20024;-79
2021/09/19 20:40:58;;;;;;;5.97;3.80;;;;;;;;;;4920506;29;20500;-81
2021/09/19 20:43:24;;;;;;;7.00;4.07;;;;;;;;;;4919799;29;20032;-80
2021/09/19 20:45:52;;;;;;;6.22;3.63;;;;;;;;;;4919905;29;20038;-79
2021/09/19 20:48:18;;;;;;;7.85;4.63;;;;;;;;;;4902898;29;20507;-79
2021/09/19 20:50:44;;;;;;;6.93;3.78;;;;;;;;;;4902812;29;20028;-80
2021/09/19 20:53:11;;;;;;;9.23;4.28;;;;;;;;;;4920255;29;20028;-78
2021/09/19 20:55:37;;;;;;;7.80;4.05;;;;;;;;;;4920269;29;20040;-79
2021/09/19 20:58:04;;;;;;;7.10;4.05;;;;;;;;;;4902479;29;20075;-80
2021/09/19 21:00:30;;;;;;;6.65;4.35;;;;;;;;;;4919526;29;20028;-80
2021/09/19 21:02:56;;;;;;;6.65;4.25;;;;;;;;;;4919889;29;20024;-80
2021/09/19 21:05:23;;;;;;;8.77;4.60;;;;;;;;;;4918891;29;20386;-78
2021/09/19 21:07:49;;;;;;;7.40;4.20;;;;;;;;;;4902256;29;20462;-79
2021/09/19 21:10:16;;;;;;;9.98;4.97;;;;;;;;;;4919128;29;20028;-81
2021/09/19 21:12:44;;;;;;;10.25;4.55;;;;;;;;;;4919695;29;20036;-80
2021/09/19 21:15:13;;;;;;;8.13;4.72;;;;;;;;;;4918652;29;20048;-81
2021/09/19 21:17:41;;;;;;;7.72;4.93;;;;;;;;;;4919625;29;20032;-81
2021/09/19 21:20:08;;;;;;;10.20;4.30;;;;;;;;;;4918842;29;20393;-80
2021/09/19 21:22:36;;;;;;;7.43;4.03;;;;;;;;;;4919484;29;20033;-82
2021/09/19 21:25:03;;;;;;;7.15;3.85;;;;;;;;;;4902358;29;20040;-82
2021/09/19 21:27:31;;;;;;;8.27;3.90;;;;;;;;;;4919411;29;20035;-81
2021/09/19 21:29:57;;;;;;;7.00;4.43;;;;;;;;;;4918817;29;20020;-80
2021/09/19 21:32:23;;;;;;;7.57;4.57;;;;;;;;;;4918836;29;20032;-80
2021/09/19 21:34:49;;;;;;;8.10;3.92;;;;;;;;;;4918762;29;20077;-81
2021/09/19 21:37:16;;;;;;;6.15;3.58;;;;;;;;;;4901805;29;20032;-79
2021/09/19 21:39:42;;;;;;;9.27;4.18;;;;;;;;;;4918712;29;20080;-79
2021/09/19 21:42:09;;;;;;;6.93;3.58;;;;;;;;;;4918593;29;20075;-81
2021/09/19 21:44:37;;;;;;;9.02;4.55;;;;;;;;;;4901439;29;20115;-80
2021/09/19 21:47:06;;;;;;;8.05;4.57;;;;;;;;;;4918439;29;20032;-81
2021/09/19 21:49:34;;;;;;;8.93;4.45;;;;;;;;;;4918990;29;20436;-81
2021/09/19 21:52:02;;;;;;;8.63;4.50;;;;;;;;;;4918932;29;20031;-81
2021/09/19 21:54:29;;;;;;;9.48;4.28;;;;;;;;;;4918923;29;20028;-81
2021/09/19 21:56:57;;;;;;;7.03;4.00;;;;;;;;;;4918812;29;20425;-81
2021/09/19 21:59:25;;;;;;;8.73;4.20;;;;;;;;;;4918458;29;20115;-81
2021/09/19 22:01:54;;;;;;;7.45;3.88;;;;;;;;;;4918330;29;20083;-81
2021/09/19 22:04:22;;;;;;;7.35;4.07;;;;;;;;;;4918716;29;20059;-83
2021/09/19 22:06:49;;;;;;;9.02;3.67;;;;;;;;;;4918134;29;20036;-80
2021/09/19 22:09:19;;;;;;;7.45;3.22;;;;;;;;;;4918048;29;20064;-82
2021/09/19 22:14:16;;;;;;;12.45;4.22;;;;;;;;;;4917962;29;20036;-81
2021/09/19 22:16:45;;;;;;;8.10;4.13;;;;;;;;;;4917719;29;20052;-82
2021/09/19 22:19:13;;;;;;;5.85;3.25;;;;;;;;;;4917759;29;20156;-82
2021/09/19 22:21:41;;;;;;;7.80;4.00;;;;;;;;;;4917869;29;20035;-82
2021/09/19 22:24:10;;;;;;;6.80;3.92;;;;;;;;;;4918420;29;20040;-86
2021/09/19 22:26:38;;;;;;;5.93;3.47;;;;;;;;;;4917933;29;20103;-86
2021/09/19 22:29:04;;;;;;;7.53;3.35;;;;;;;;;;4917849;29;20035;-82
2021/09/19 22:31:33;;;;;;;6.43;2.90;;;;;;;;;;4900741;29;20028;-84
2021/09/19 22:34:02;;;;;;;7.07;3.40;;;;;;;;;;4917723;29;20075;-80
2021/09/19 22:36:30;;;;;;;6.13;3.35;;;;;;;;;;4917615;29;20088;-79
2021/09/19 22:38:59;;;;;;;6.50;3.65;;;;;;;;;;4917601;29;20120;-79
2021/09/19 22:41:25;;;;;;;5.60;3.30;;;;;;;;;;4917630;29;20028;-77
2021/09/19 22:43:54;;;;;;;7.55;3.33;;;;;;;;;;4900511;29;20043;-80
2021/09/19 22:46:22;;;;;;;5.90;3.50;;;;;;;;;;4917470;29;20039;-80
2021/09/19 22:48:50;;;;;;;6.30;3.30;;;;;;;;;;4918014;29;20355;-80
2021/09/19 22:51:18;;;;;;;9.35;3.78;;;;;;;;;;4900511;29;20075;-79
2021/09/19 22:53:46;;;;;;;7.00;3.67;;;;;;;;;;4917397;29;20025;-80
2021/09/19 22:56:14;;;;;;;8.18;3.55;;;;;;;;;;4917381;29;20036;-80
2021/09/19 22:58:42;;;;;;;7.63;3.75;;;;;;;;;;4917485;29;20031;-80
2021/09/19 23:01:12;;;;;;;7.78;4.07;;;;;;;;;;4917914;29;20032;-80
2021/09/19 23:03:39;;;;;;;7.60;3.22;;;;;;;;;;4917295;29;20130;-79
2021/09/19 23:06:08;;;;;;;7.47;3.97;;;;;;;;;;4900238;29;20115;-80
2021/09/19 23:08:35;;;;;;;7.97;4.22;;;;;;;;;;4917327;29;20035;-80
2021/09/19 23:11:03;;;;;;;9.50;4.22;;;;;;;;;;4917771;29;20430;-80
2021/09/19 23:13:31;;;;;;;7.10;3.80;;;;;;;;;;4917866;29;20083;-79
2021/09/19 23:15:59;;;;;;;7.75;4.57;;;;;;;;;;4916725;29;20417;-80
2021/09/19 23:18:27;;;;;;;7.70;4.68;;;;;;;;;;4917250;29;20021;-80
2021/09/19 23:20:56;;;;;;;9.20;4.25;;;;;;;;;;4917678;29;20032;-80
2021/09/19 23:23:23;;;;;;;5.90;3.80;;;;;;;;;;4917066;29;20032;-80
2021/09/19 23:25:50;;;;;;;9.27;4.43;;;;;;;;;;4917634;29;20024;-80
2021/09/19 23:28:19;;;;;;;6.60;4.13;;;;;;;;;;4917554;29;20036;-79
2021/09/19 23:30:47;;;;;;;10.65;4.97;;;;;;;;;;4921223;29;20477;-80
2021/09/19 23:33:15;;;;;;;8.65;4.82;;;;;;;;;;4903953;29;20160;-80
2021/09/19 23:35:42;;;;;;;9.45;5.30;;;;;;;;;;4920775;29;20055;-80
2021/09/19 23:38:10;;;;;;;10.25;5.32;;;;;;;;;;4921404;29;20052;-80
2021/09/19 23:40:40;;;;;;;8.50;4.97;;;;;;;;;;4903761;29;20062;-79
2021/09/19 23:43:08;;;;;;;8.57;4.30;;;;;;;;;;4920538;29;20043;-79
2021/09/19 23:45:34;;;;;;;9.38;5.10;;;;;;;;;;4920599;29;20032;-79
2021/09/19 23:48:03;;;;;;;9.57;5.10;;;;;;;;;;4921147;29;20458;-79
2021/09/19 23:50:31;;;;;;;10.98;5.50;;;;;;;;;;4920555;29;20024;-80
2021/09/19 23:52:59;;;;;;;8.30;4.93;;;;;;;;;;4920998;29;20032;-79
2021/09/19 23:55:27;;;;;;;9.32;5.15;;;;;;;;;;4921028;29;20053;-79
2021/09/19 23:57:55;;;;;;;11.05;5.45;;;;;;;;;;4920383;29;20036;-80
